createdAt,value
2018-08-09T00:01:24.000Z,29.4
2018-08-09T00:02:24.000Z,29.4
2018-08-09T00:04:24.000Z,29.4
2018-08-09T00:06:24.000Z,29.2
2018-08-09T00:08:24.000Z,29.1
2018-08-09T00:10:09.000Z,29.1
2018-08-09T00:11:24.000Z,29
2018-08-09T00:13:24.000Z,29
2018-08-09T00:15:24.000Z,29
2018-08-09T00:17:24.000Z,28.9
2018-08-09T00:18:24.000Z,28.9
2018-08-09T00:20:24.000Z,28.9
2018-08-09T00:21:24.000Z,29
2018-08-09T00:23:24.000Z,29
2018-08-09T00:24:24.000Z,29
2018-08-09T00:26:24.000Z,29
2018-08-09T00:27:24.000Z,29
2018-08-09T00:28:24.000Z,29.1
2018-08-09T00:30:24.000Z,29.1
2018-08-09T00:32:09.000Z,29.1
2018-08-09T00:33:24.000Z,29
2018-08-09T00:34:24.000Z,29
2018-08-09T00:36:24.000Z,29
2018-08-09T00:37:24.000Z,29.1
2018-08-09T00:39:09.000Z,29.1
2018-08-09T00:40:24.000Z,29.1
2018-08-09T00:41:24.000Z,29.1
2018-08-09T00:42:24.000Z,29.1
2018-08-09T00:43:24.000Z,29.2
2018-08-09T00:45:24.000Z,29.2
2018-08-09T00:47:24.000Z,29.1
2018-08-09T00:49:24.000Z,29
2018-08-09T00:51:24.000Z,28.9
2018-08-09T00:53:24.000Z,28.8
2018-08-09T00:55:24.000Z,28.7
2018-08-09T00:57:24.000Z,28.7
2018-08-09T00:58:24.000Z,28.8
2018-08-09T00:59:24.000Z,28.8
2018-08-09T01:01:24.000Z,28.9
2018-08-09T01:02:24.000Z,28.9
2018-08-09T01:04:24.000Z,29
2018-08-09T01:05:24.000Z,29
2018-08-09T01:07:24.000Z,29
2018-08-09T01:09:24.000Z,28.9
2018-08-09T01:10:24.000Z,28.9
2018-08-09T01:11:24.000Z,28.9
2018-08-09T01:12:24.000Z,29
2018-08-09T01:14:24.000Z,28.9
2018-08-09T01:16:24.000Z,28.8
2018-08-09T01:18:24.000Z,28.7
2018-08-09T01:19:24.000Z,28.7
2018-08-09T01:21:24.000Z,28.7
2018-08-09T01:23:24.000Z,28.7
2018-08-09T01:25:24.000Z,28.7
2018-08-09T01:26:24.000Z,28.7
2018-08-09T01:27:24.000Z,28.7
2018-08-09T01:28:24.000Z,28.7
2018-08-09T01:30:24.000Z,28.8
2018-08-09T01:32:09.000Z,28.8
2018-08-09T01:33:24.000Z,28.8
2018-08-09T01:34:24.000Z,28.8
2018-08-09T01:35:24.000Z,28.8
2018-08-09T01:36:24.000Z,28.9
2018-08-09T01:38:09.000Z,29
2018-08-09T01:39:24.000Z,28.9
2018-08-09T01:40:24.000Z,28.9
2018-08-09T01:42:24.000Z,28.9
2018-08-09T01:44:24.000Z,28.9
2018-08-09T01:45:24.000Z,28.9
2018-08-09T01:46:24.000Z,28.9
2018-08-09T01:47:24.000Z,28.9
2018-08-09T01:49:24.000Z,28.9
2018-08-09T01:51:24.000Z,28.8
2018-08-09T01:52:24.000Z,28.8
2018-08-09T01:54:24.000Z,28.7
2018-08-09T01:55:24.000Z,28.7
2018-08-09T01:57:09.000Z,28.7
2018-08-09T01:58:24.000Z,28.7
2018-08-09T02:00:24.000Z,28.7
2018-08-09T02:01:24.000Z,28.7
2018-08-09T02:03:24.000Z,28.7
2018-08-09T02:04:24.000Z,28.7
2018-08-09T02:05:24.000Z,28.8
2018-08-09T02:06:24.000Z,28.8
2018-08-09T02:08:24.000Z,28.9
2018-08-09T02:09:24.000Z,28.9
2018-08-09T02:11:24.000Z,28.8
2018-08-09T02:13:24.000Z,28.8
2018-08-09T02:14:24.000Z,28.7
2018-08-09T02:15:24.000Z,28.7
2018-08-09T02:17:24.000Z,28.7
2018-08-09T02:19:24.000Z,28.7
2018-08-09T02:20:24.000Z,28.7
2018-08-09T02:22:24.000Z,28.7
2018-08-09T02:24:24.000Z,28.6
2018-08-09T02:26:24.000Z,28.6
2018-08-09T02:28:24.000Z,28.6
2018-08-09T02:30:24.000Z,28.6
2018-08-09T02:32:24.000Z,28.6
2018-08-09T02:34:24.000Z,28.5
2018-08-09T02:36:24.000Z,28.5
2018-08-09T02:37:24.000Z,28.5
2018-08-09T02:38:24.000Z,28.6
2018-08-09T02:40:24.000Z,28.6
2018-08-09T02:41:24.000Z,28.6
2018-08-09T02:42:24.000Z,28.6
2018-08-09T02:44:24.000Z,28.7
2018-08-09T02:46:24.000Z,28.7
2018-08-09T02:47:24.000Z,28.7
2018-08-09T02:49:08.000Z,28.8
2018-08-09T02:50:24.000Z,28.7
2018-08-09T02:52:24.000Z,28.7
2018-08-09T02:54:24.000Z,28.6
2018-08-09T02:56:24.000Z,28.6
2018-08-09T02:58:24.000Z,28.6
2018-08-09T03:00:24.000Z,28.6
2018-08-09T03:02:24.000Z,28.5
2018-08-09T03:04:24.000Z,28.5
2018-08-09T03:06:24.000Z,28.5
2018-08-09T03:08:24.000Z,28.5
2018-08-09T03:10:24.000Z,28.5
2018-08-09T03:12:24.000Z,28.5
2018-08-09T03:14:24.000Z,28.4
2018-08-09T03:15:24.000Z,28.4
2018-08-09T03:17:24.000Z,28.4
2018-08-09T03:19:24.000Z,28.4
2018-08-09T03:21:24.000Z,28.4
2018-08-09T03:22:24.000Z,28.5
2018-08-09T03:23:24.000Z,28.5
2018-08-09T03:25:24.000Z,28.5
2018-08-09T03:26:24.000Z,28.6
2018-08-09T03:28:09.000Z,28.6
2018-08-09T03:29:24.000Z,28.6
2018-08-09T03:31:24.000Z,28.5
2018-08-09T03:33:09.000Z,28.5
2018-08-09T03:34:24.000Z,28.5
2018-08-09T03:35:24.000Z,28.5
2018-08-09T03:37:24.000Z,28.5
2018-08-09T03:38:24.000Z,28.5
2018-08-09T03:39:24.000Z,28.6
2018-08-09T03:41:24.000Z,28.6
2018-08-09T03:43:24.000Z,28.5
2018-08-09T03:44:24.000Z,28.4
2018-08-09T03:46:09.000Z,28.4
2018-08-09T03:47:24.000Z,28.4
2018-08-09T03:49:24.000Z,28.3
2018-08-09T03:50:24.000Z,28.3
2018-08-09T03:52:09.000Z,28.4
2018-08-09T03:53:24.000Z,28.3
2018-08-09T03:55:24.000Z,28.2
2018-08-09T03:56:24.000Z,28.2
2018-08-09T03:58:24.000Z,28.2
2018-08-09T04:00:24.000Z,28.2
2018-08-09T04:01:24.000Z,28.2
2018-08-09T04:02:24.000Z,28.3
2018-08-09T04:03:24.000Z,28.3
2018-08-09T04:05:24.000Z,28.4
2018-08-09T04:07:24.000Z,28.4
2018-08-09T04:08:24.000Z,28.4
2018-08-09T04:09:24.000Z,28.4
2018-08-09T04:10:24.000Z,28.5
2018-08-09T04:12:24.000Z,28.6
2018-08-09T04:14:24.000Z,28.5
2018-08-09T04:15:24.000Z,28.5
2018-08-09T04:17:09.000Z,28.5
2018-08-09T04:18:24.000Z,28.5
2018-08-09T04:20:24.000Z,28.5
2018-08-09T04:22:24.000Z,28.4
2018-08-09T04:23:24.000Z,28.4
2018-08-09T04:25:24.000Z,28.4
2018-08-09T04:26:24.000Z,28.4
2018-08-09T04:27:24.000Z,28.5
2018-08-09T04:28:24.000Z,28.5
2018-08-09T04:29:24.000Z,28.5
2018-08-09T04:30:24.000Z,28.5
2018-08-09T04:32:24.000Z,28.5
2018-08-09T04:33:24.000Z,28.5
2018-08-09T04:34:24.000Z,28.5
2018-08-09T04:36:24.000Z,28.4
2018-08-09T04:37:24.000Z,28.3
2018-08-09T04:39:24.000Z,28.3
2018-08-09T04:40:24.000Z,28.3
2018-08-09T04:41:24.000Z,28.4
2018-08-09T04:43:24.000Z,28.5
2018-08-09T04:44:24.000Z,28.6
2018-08-09T04:45:24.000Z,28.7
2018-08-09T04:46:24.000Z,28.8
2018-08-09T04:47:24.000Z,29
2018-08-09T04:49:24.000Z,29
2018-08-09T04:50:24.000Z,29.1
2018-08-09T04:51:24.000Z,29.1
2018-08-09T04:53:24.000Z,29.2
2018-08-09T04:54:24.000Z,29.3
2018-08-09T04:56:09.000Z,29.5
2018-08-09T04:57:24.000Z,29.5
2018-08-09T04:59:24.000Z,29.6
2018-08-09T05:01:24.000Z,29.5
2018-08-09T05:02:24.000Z,29.4
2018-08-09T05:04:24.000Z,29.3
2018-08-09T05:05:24.000Z,29.3
2018-08-09T05:07:24.000Z,29.2
2018-08-09T05:09:24.000Z,29
2018-08-09T05:11:24.000Z,28.9
2018-08-09T05:12:24.000Z,28.9
2018-08-09T05:14:24.000Z,28.8
2018-08-09T05:15:24.000Z,28.9
2018-08-09T05:16:24.000Z,28.9
2018-08-09T05:18:24.000Z,29.1
2018-08-09T05:20:24.000Z,29.1
2018-08-09T05:22:24.000Z,29.1
2018-08-09T05:23:24.000Z,29.1
2018-08-09T05:25:24.000Z,29.2
2018-08-09T05:27:24.000Z,29.3
2018-08-09T05:29:24.000Z,29.3
2018-08-09T05:30:24.000Z,29.4
2018-08-09T05:32:24.000Z,29.5
2018-08-09T05:33:24.000Z,29.6
2018-08-09T05:35:24.000Z,29.7
2018-08-09T05:36:24.000Z,29.8
2018-08-09T05:38:24.000Z,29.7
2018-08-09T05:40:24.000Z,29.6
2018-08-09T05:42:24.000Z,29.7
2018-08-09T05:44:24.000Z,29.6
2018-08-09T05:45:24.000Z,29.6
2018-08-09T05:47:24.000Z,29.7
2018-08-09T05:48:24.000Z,29.7
2018-08-09T05:50:24.000Z,29.7
2018-08-09T05:52:24.000Z,29.7
2018-08-09T05:54:24.000Z,29.6
2018-08-09T05:55:24.000Z,29.6
2018-08-09T05:57:24.000Z,29.6
2018-08-09T05:58:24.000Z,29.7
2018-08-09T06:00:24.000Z,29.7
2018-08-09T06:02:24.000Z,29.6
2018-08-09T06:04:24.000Z,29.7
2018-08-09T06:06:24.000Z,29.8
2018-08-09T06:08:24.000Z,29.9
2018-08-09T06:10:09.000Z,30
2018-08-09T06:11:24.000Z,30
2018-08-09T06:12:24.000Z,30
2018-08-09T06:13:24.000Z,29.9
2018-08-09T06:15:24.000Z,29.9
2018-08-09T06:17:24.000Z,30
2018-08-09T06:18:24.000Z,30.1
2018-08-09T06:19:24.000Z,30.2
2018-08-09T06:20:25.000Z,30.3
2018-08-09T06:22:25.000Z,30.5
2018-08-09T06:24:25.000Z,30.5
2018-08-09T06:26:25.000Z,30.5
2018-08-09T06:27:25.000Z,30.5
2018-08-09T06:29:25.000Z,30.6
2018-08-09T06:30:25.000Z,30.7
2018-08-09T06:31:25.000Z,30.8
2018-08-09T06:33:25.000Z,30.9
2018-08-09T06:35:25.000Z,30.9
2018-08-09T06:37:25.000Z,30.8
2018-08-09T06:38:25.000Z,30.7
2018-08-09T06:40:25.000Z,30.8
2018-08-09T06:42:09.000Z,30.9
2018-08-09T06:43:25.000Z,30.9
2018-08-09T06:45:25.000Z,30.9
2018-08-09T06:46:25.000Z,30.9
2018-08-09T06:47:25.000Z,31
2018-08-09T06:48:25.000Z,31.1
2018-08-09T06:50:25.000Z,31.3
2018-08-09T06:51:25.000Z,31.4
2018-08-09T06:53:25.000Z,31.4
2018-08-09T06:54:25.000Z,31.4
2018-08-09T06:55:25.000Z,31.4
2018-08-09T06:56:25.000Z,31.4
2018-08-09T06:58:25.000Z,31.3
2018-08-09T06:59:25.000Z,31.3
2018-08-09T07:00:25.000Z,31.2
2018-08-09T07:01:25.000Z,31.2
2018-08-09T07:03:25.000Z,31.2
2018-08-09T07:05:25.000Z,31.1
2018-08-09T07:07:25.000Z,30.9
2018-08-09T07:09:25.000Z,30.7
2018-08-09T07:11:25.000Z,30.7
2018-08-09T07:12:25.000Z,30.7
2018-08-09T07:13:25.000Z,30.8
2018-08-09T07:15:25.000Z,30.9
2018-08-09T07:17:25.000Z,30.9
2018-08-09T07:19:25.000Z,31
2018-08-09T07:20:25.000Z,31.1
2018-08-09T07:22:25.000Z,31.1
2018-08-09T07:23:25.000Z,31.1
2018-08-09T07:24:24.000Z,31.1
2018-08-09T07:26:24.000Z,31
2018-08-09T07:28:24.000Z,30.9
2018-08-09T07:30:24.000Z,30.8
2018-08-09T07:32:24.000Z,30.8
2018-08-09T07:33:24.000Z,30.7
2018-08-09T07:35:24.000Z,30.6
2018-08-09T07:37:09.000Z,30.5
2018-08-09T07:38:24.000Z,30.4
2018-08-09T07:39:24.000Z,30.4
2018-08-09T07:40:24.000Z,30.4
2018-08-09T07:41:24.000Z,30.4
2018-08-09T07:42:24.000Z,30.5
2018-08-09T07:44:24.000Z,30.6
2018-08-09T07:45:24.000Z,30.6
2018-08-09T07:46:24.000Z,30.7
2018-08-09T07:48:24.000Z,30.7
2018-08-09T07:49:24.000Z,30.7
2018-08-09T07:51:24.000Z,30.7
2018-08-09T07:53:24.000Z,30.8
2018-08-09T07:55:09.000Z,30.8
2018-08-09T07:56:24.000Z,30.9
2018-08-09T07:58:24.000Z,31
2018-08-09T07:59:24.000Z,31.1
2018-08-09T08:01:24.000Z,31.3
2018-08-09T08:03:24.000Z,31.5
2018-08-09T08:04:24.000Z,31.5
2018-08-09T08:06:24.000Z,31.8
2018-08-09T08:07:24.000Z,31.9
2018-08-09T08:09:24.000Z,32.1
2018-08-09T08:11:24.000Z,32.2
2018-08-09T08:12:24.000Z,32.2
2018-08-09T08:14:24.000Z,32.4
2018-08-09T08:16:24.000Z,32.5
2018-08-09T08:18:24.000Z,32.6
2018-08-09T08:19:24.000Z,32.7
2018-08-09T08:21:09.000Z,32.8
2018-08-09T08:22:24.000Z,32.6
2018-08-09T08:24:24.000Z,32.3
2018-08-09T08:25:24.000Z,32.2
2018-08-09T08:27:25.000Z,32
2018-08-09T08:29:09.000Z,31.8
2018-08-09T08:30:25.000Z,31.7
2018-08-09T08:32:25.000Z,31.6
2018-08-09T08:33:25.000Z,31.6
2018-08-09T08:34:25.000Z,31.5
2018-08-09T08:36:25.000Z,31.5
2018-08-09T08:37:25.000Z,31.4
2018-08-09T08:39:25.000Z,31.4
2018-08-09T08:40:25.000Z,31.4
2018-08-09T08:42:25.000Z,31.3
2018-08-09T08:43:25.000Z,31.3
2018-08-09T08:45:25.000Z,31.2
2018-08-09T08:47:09.000Z,31.1
2018-08-09T08:48:25.000Z,31.1
2018-08-09T08:50:25.000Z,31
2018-08-09T08:51:25.000Z,31
2018-08-09T08:52:25.000Z,31
2018-08-09T08:54:25.000Z,31.1
2018-08-09T08:55:25.000Z,31.1
2018-08-09T08:56:25.000Z,31.2
2018-08-09T08:58:25.000Z,31.2
2018-08-09T09:00:25.000Z,31.3
2018-08-09T09:02:09.000Z,31.3
2018-08-09T09:03:25.000Z,31.2
2018-08-09T09:05:25.000Z,31.2
2018-08-09T09:07:25.000Z,31.2
2018-08-09T09:09:25.000Z,31.2
2018-08-09T09:10:25.000Z,31.2
2018-08-09T09:12:25.000Z,31.3
2018-08-09T09:13:25.000Z,31.3
2018-08-09T09:14:25.000Z,31.3
2018-08-09T09:15:25.000Z,31.4
2018-08-09T09:17:25.000Z,31.4
2018-08-09T09:18:25.000Z,31.4
2018-08-09T09:20:25.000Z,31.3
2018-08-09T09:21:25.000Z,31.3
2018-08-09T09:23:25.000Z,31.3
2018-08-09T09:25:25.000Z,31.3
2018-08-09T09:27:25.000Z,31.4
2018-08-09T09:29:25.000Z,31.4
2018-08-09T09:30:25.000Z,31.4
2018-08-09T09:32:24.000Z,31.4
2018-08-09T09:34:24.000Z,31.4
2018-08-09T09:35:24.000Z,31.4
2018-08-09T09:36:24.000Z,31.5
2018-08-09T09:37:24.000Z,31.5
2018-08-09T09:38:24.000Z,31.6
2018-08-09T09:39:24.000Z,31.6
2018-08-09T09:41:09.000Z,31.7
2018-08-09T09:42:24.000Z,31.7
2018-08-09T09:44:24.000Z,31.6
2018-08-09T09:45:24.000Z,31.6
2018-08-09T09:47:24.000Z,31.6
2018-08-09T09:48:24.000Z,31.7
2018-08-09T09:50:24.000Z,31.7
2018-08-09T09:52:24.000Z,31.7
2018-08-09T09:54:24.000Z,31.7
2018-08-09T09:56:24.000Z,31.7
2018-08-09T09:57:24.000Z,31.7
2018-08-09T09:59:09.000Z,31.7
2018-08-09T10:00:24.000Z,31.7
2018-08-09T10:01:24.000Z,31.8
2018-08-09T10:03:24.000Z,31.8
2018-08-09T10:04:24.000Z,31.9
2018-08-09T10:05:24.000Z,31.9
2018-08-09T10:06:24.000Z,32
2018-08-09T10:08:24.000Z,32.2
2018-08-09T10:09:24.000Z,32.2
2018-08-09T10:11:24.000Z,32.3
2018-08-09T10:13:24.000Z,32.2
2018-08-09T10:14:24.000Z,32.2
2018-08-09T10:16:24.000Z,32.2
2018-08-09T10:17:24.000Z,32.2
2018-08-09T10:18:24.000Z,32.2
2018-08-09T10:19:24.000Z,32.2
2018-08-09T10:21:09.000Z,32.3
2018-08-09T10:22:24.000Z,32.2
2018-08-09T10:24:24.000Z,32.1
2018-08-09T10:25:24.000Z,32.1
2018-08-09T10:26:24.000Z,32.2
2018-08-09T10:27:24.000Z,32.2
2018-08-09T10:29:24.000Z,32.3
2018-08-09T10:30:24.000Z,32.3
2018-08-09T10:31:24.000Z,32.4
2018-08-09T10:33:24.000Z,32.4
2018-08-09T10:35:24.000Z,32.3
2018-08-09T10:37:24.000Z,32.2
2018-08-09T10:39:24.000Z,32.1
2018-08-09T10:40:24.000Z,32.1
2018-08-09T10:42:24.000Z,32.1
2018-08-09T10:43:24.000Z,32
2018-08-09T10:45:24.000Z,32.1
2018-08-09T10:46:24.000Z,32.2
2018-08-09T10:47:24.000Z,32.2
2018-08-09T10:48:24.000Z,32.3
2018-08-09T10:50:24.000Z,32.3
2018-08-09T10:52:24.000Z,32.2
2018-08-09T10:54:24.000Z,32.1
2018-08-09T10:55:24.000Z,32.2
2018-08-09T10:56:24.000Z,32.2
2018-08-09T10:58:09.000Z,32.3
2018-08-09T10:59:24.000Z,32.3
2018-08-09T11:00:24.000Z,32.3
2018-08-09T11:02:24.000Z,32.4
2018-08-09T11:03:24.000Z,32.4
2018-08-09T11:04:24.000Z,32.5
2018-08-09T11:06:24.000Z,32.5
2018-08-09T11:07:24.000Z,32.7
2018-08-09T11:09:24.000Z,35.5
2018-08-09T11:10:24.000Z,37.1
2018-08-09T11:11:24.000Z,38.5
2018-08-09T11:12:24.000Z,39.7
2018-08-09T11:14:24.000Z,41.6
2018-08-09T11:15:24.000Z,42.3
2018-08-09T11:17:24.000Z,43.4
2018-08-09T11:19:24.000Z,44.5
2018-08-09T11:21:24.000Z,45.5
2018-08-09T11:23:24.000Z,45.6
2018-08-09T11:24:24.000Z,44.6
2018-08-09T11:26:24.000Z,42.4
2018-08-09T11:27:24.000Z,41.4
2018-08-09T11:29:24.000Z,39.9
2018-08-09T11:31:24.000Z,38.7
2018-08-09T11:32:24.000Z,38.2
2018-08-09T11:34:09.000Z,37.6
2018-08-09T11:35:24.000Z,37.2
2018-08-09T11:37:24.000Z,36.7
2018-08-09T11:39:24.000Z,36.2
2018-08-09T11:40:24.000Z,36.1
2018-08-09T11:41:24.000Z,36
2018-08-09T11:42:24.000Z,35.9
2018-08-09T11:44:24.000Z,35.7
2018-08-09T11:46:24.000Z,35.5
2018-08-09T11:48:24.000Z,35.3
2018-08-09T11:49:24.000Z,35.3
2018-08-09T11:51:24.000Z,35.2
2018-08-09T11:52:24.000Z,35.1
2018-08-09T11:54:24.000Z,35.1
2018-08-09T11:56:24.000Z,34.9
2018-08-09T11:57:24.000Z,34.8
2018-08-09T11:58:24.000Z,34.8
2018-08-09T12:00:24.000Z,34.8
2018-08-09T12:02:24.000Z,34.7
2018-08-09T12:04:24.000Z,34.5
2018-08-09T12:05:24.000Z,34.5
2018-08-09T12:07:24.000Z,34.3
2018-08-09T12:09:24.000Z,34.2
2018-08-09T12:10:24.000Z,34.2
2018-08-09T12:11:24.000Z,34.3
2018-08-09T12:13:24.000Z,34.3
2018-08-09T12:15:24.000Z,34.3
2018-08-09T12:17:24.000Z,34.2
2018-08-09T12:18:24.000Z,34.2
2018-08-09T12:20:24.000Z,34.1
2018-08-09T12:22:24.000Z,34
2018-08-09T12:23:24.000Z,34
2018-08-09T12:25:24.000Z,34
2018-08-09T12:26:24.000Z,34
2018-08-09T12:28:24.000Z,34
2018-08-09T12:30:24.000Z,33.9
2018-08-09T12:31:24.000Z,33.9
2018-08-09T12:33:24.000Z,33.9
2018-08-09T12:34:24.000Z,33.9
2018-08-09T12:36:24.000Z,33.9
2018-08-09T12:38:24.000Z,33.8
2018-08-09T12:39:24.000Z,33.8
2018-08-09T12:41:24.000Z,33.8
2018-08-09T12:43:24.000Z,33.8
2018-08-09T12:45:09.000Z,33.8
2018-08-09T12:46:24.000Z,33.9
2018-08-09T12:47:24.000Z,33.9
2018-08-09T12:49:24.000Z,34
2018-08-09T12:51:24.000Z,34.1
2018-08-09T12:53:24.000Z,34.3
2018-08-09T12:54:24.000Z,34.3
2018-08-09T12:56:24.000Z,34.6
2018-08-09T12:57:24.000Z,34.7
2018-08-09T12:59:24.000Z,34.9
2018-08-09T13:00:24.000Z,35
2018-08-09T13:01:24.000Z,35.1
2018-08-09T13:03:24.000Z,35.2
2018-08-09T13:05:09.000Z,35.1
2018-08-09T13:06:24.000Z,35.1
2018-08-09T13:07:24.000Z,35.1
2018-08-09T13:09:24.000Z,35
2018-08-09T13:11:24.000Z,34.9
2018-08-09T13:13:24.000Z,34.8
2018-08-09T13:15:24.000Z,34.7
2018-08-09T13:16:24.000Z,34.7
2018-08-09T13:18:24.000Z,34.7
2018-08-09T13:19:24.000Z,34.7
2018-08-09T13:21:24.000Z,34.7
2018-08-09T13:23:24.000Z,34.7
2018-08-09T13:24:24.000Z,34.8
2018-08-09T13:25:24.000Z,34.8
2018-08-09T13:27:24.000Z,34.8
2018-08-09T13:29:24.000Z,34.7
2018-08-09T13:30:24.000Z,34.7
2018-08-09T13:32:24.000Z,34.6
2018-08-09T13:34:24.000Z,34.5
2018-08-09T13:36:24.000Z,34.5
2018-08-09T13:37:24.000Z,34.5
2018-08-09T13:39:24.000Z,34.5
2018-08-09T13:40:24.000Z,34.5
2018-08-09T13:41:24.000Z,34.5
2018-08-09T13:42:24.000Z,34.5
2018-08-09T13:44:24.000Z,34.5
2018-08-09T13:46:25.000Z,34.2
2018-08-09T13:47:25.000Z,34.1
2018-08-09T13:49:25.000Z,33.8
2018-08-09T13:50:25.000Z,33.7
2018-08-09T13:52:25.000Z,33.5
2018-08-09T13:53:25.000Z,33.3
2018-08-09T13:55:25.000Z,33
2018-08-09T13:57:25.000Z,32.6
2018-08-09T13:59:25.000Z,32.3
2018-08-09T14:00:25.000Z,32.2
2018-08-09T14:02:25.000Z,32
2018-08-09T14:03:25.000Z,32
2018-08-09T14:05:25.000Z,31.8
2018-08-09T14:07:25.000Z,31.7
2018-08-09T14:08:25.000Z,31.6
2018-08-09T14:10:25.000Z,31.5
2018-08-09T14:11:25.000Z,31.5
2018-08-09T14:12:25.000Z,31.5
2018-08-09T14:14:25.000Z,31.4
2018-08-09T14:15:25.000Z,31.4
2018-08-09T14:17:25.000Z,31.3
2018-08-09T14:19:25.000Z,31.1
2018-08-09T14:21:25.000Z,30.9
2018-08-09T14:23:25.000Z,30.8
2018-08-09T14:25:25.000Z,30.6
2018-08-09T14:27:25.000Z,30.5
2018-08-09T14:29:10.000Z,30.5
2018-08-09T14:30:25.000Z,30.5
2018-08-09T14:31:25.000Z,30.5
2018-08-09T14:33:25.000Z,30.6
2018-08-09T14:34:25.000Z,30.6
2018-08-09T14:36:25.000Z,30.7
2018-08-09T14:37:25.000Z,30.7
2018-08-09T14:39:25.000Z,30.8
2018-08-09T14:41:25.000Z,30.9
2018-08-09T14:43:25.000Z,30.8
2018-08-09T14:44:25.000Z,30.8
2018-08-09T14:46:25.000Z,30.8
2018-08-09T14:47:25.000Z,30.8
2018-08-09T14:48:25.000Z,30.8
2018-08-09T14:49:24.000Z,30.8
2018-08-09T14:51:24.000Z,30.9
2018-08-09T14:52:24.000Z,30.9
2018-08-09T14:53:24.000Z,30.9
2018-08-09T14:55:24.000Z,30.9
2018-08-09T14:56:24.000Z,30.9
2018-08-09T14:57:25.000Z,30.9
2018-08-09T14:59:24.000Z,31
2018-08-09T15:01:24.000Z,30.9
2018-08-09T15:03:24.000Z,30.8
2018-08-09T15:04:24.000Z,30.8
2018-08-09T15:06:09.000Z,30.9
2018-08-09T15:07:24.000Z,30.9
2018-08-09T15:08:24.000Z,30.9
2018-08-09T15:09:24.000Z,31
2018-08-09T15:10:24.000Z,31
2018-08-09T15:12:24.000Z,31.1
2018-08-09T15:14:24.000Z,31.1
2018-08-09T15:15:24.000Z,31.2
2018-08-09T15:16:24.000Z,31.3
2018-08-09T15:17:24.000Z,31.4
2018-08-09T15:18:24.000Z,31.5
2018-08-09T15:19:25.000Z,31.5
2018-08-09T15:23:10.000Z,31.3
2018-08-09T15:24:10.000Z,31.3
2018-08-09T15:25:55.000Z,31.5
2018-08-09T15:27:10.000Z,31.5
2018-08-09T15:28:10.000Z,31.6
2018-08-09T15:30:10.000Z,31.7
2018-08-09T15:31:10.000Z,31.8
2018-08-09T15:33:10.000Z,31.9
2018-08-09T15:34:10.000Z,31.9
2018-08-09T15:35:10.000Z,32
2018-08-09T15:36:10.000Z,32
2018-08-09T15:38:11.000Z,32.1
2018-08-09T15:40:10.000Z,32.1
2018-08-09T15:41:10.000Z,32.1
2018-08-09T15:42:10.000Z,32.1
2018-08-09T15:43:55.000Z,32.2
2018-08-09T15:45:10.000Z,32.2
2018-08-09T15:46:10.000Z,32.2
2018-08-09T15:48:10.000Z,32.2
2018-08-09T15:50:10.000Z,32.1
2018-08-09T15:51:55.000Z,32
2018-08-09T15:53:11.000Z,31.9
2018-08-09T15:55:11.000Z,31.9
2018-08-09T15:56:11.000Z,31.9
2018-08-09T15:58:11.000Z,31.9
2018-08-09T16:00:11.000Z,31.8
2018-08-09T16:01:11.000Z,31.8
2018-08-09T16:03:11.000Z,31.8
2018-08-09T16:05:11.000Z,31.7
2018-08-09T16:07:11.000Z,31.6
2018-08-09T16:08:11.000Z,31.6
2018-08-09T16:09:11.000Z,31.7
2018-08-09T16:11:11.000Z,31.8
2018-08-09T16:13:11.000Z,31.8
2018-08-09T16:15:11.000Z,31.8
2018-08-09T16:17:11.000Z,31.8
2018-08-09T16:18:55.000Z,31.7
2018-08-09T16:20:11.000Z,31.7
2018-08-09T16:21:11.000Z,31.7
2018-08-09T16:23:11.000Z,31.7
2018-08-09T16:25:11.000Z,31.7
2018-08-09T16:26:11.000Z,31.7
2018-08-09T16:28:11.000Z,31.8
2018-08-09T16:29:11.000Z,31.8
2018-08-09T16:31:11.000Z,31.9
2018-08-09T16:33:11.000Z,31.9
2018-08-09T16:34:55.000Z,31.9
2018-08-09T16:36:11.000Z,31.8
2018-08-09T16:37:11.000Z,31.8
2018-08-09T16:39:11.000Z,31.9
2018-08-09T16:40:11.000Z,32
2018-08-09T16:42:11.000Z,32
2018-08-09T16:43:11.000Z,32
2018-08-09T16:45:11.000Z,32
2018-08-09T16:46:11.000Z,32.1
2018-08-09T16:48:11.000Z,32
2018-08-09T16:49:11.000Z,32
2018-08-09T16:51:11.000Z,32.1
2018-08-09T16:53:11.000Z,32
2018-08-09T16:55:11.000Z,32
2018-08-09T16:57:11.000Z,32
2018-08-09T16:58:11.000Z,32.1
2018-08-09T17:00:11.000Z,32.1
2018-08-09T17:01:11.000Z,32.1
2018-08-09T17:02:55.000Z,32.2
2018-08-09T17:04:11.000Z,32.1
2018-08-09T17:06:11.000Z,32.1
2018-08-09T17:07:11.000Z,32.1
2018-08-09T17:08:11.000Z,32.1
2018-08-09T17:10:11.000Z,32.2
2018-08-09T17:11:11.000Z,32.3
2018-08-09T17:13:11.000Z,32.3
2018-08-09T17:14:11.000Z,32.4
2018-08-09T17:16:11.000Z,32.4
2018-08-09T17:18:11.000Z,32.4
2018-08-09T17:20:11.000Z,32.4
2018-08-09T17:21:11.000Z,32.4
2018-08-09T17:22:11.000Z,32.4
2018-08-09T17:23:11.000Z,32.5
2018-08-09T17:25:11.000Z,32.5
2018-08-09T17:26:11.000Z,32.5
2018-08-09T17:28:11.000Z,32.6
2018-08-09T17:29:55.000Z,32.6
2018-08-09T17:31:11.000Z,32.5
2018-08-09T17:33:11.000Z,32.6
2018-08-09T17:35:11.000Z,32.6
2018-08-09T17:36:11.000Z,32.6
2018-08-09T17:37:11.000Z,32.6
2018-08-09T17:38:11.000Z,32.7
2018-08-09T17:39:11.000Z,32.8
2018-08-09T17:41:11.000Z,32.8
2018-08-09T17:42:11.000Z,32.8
2018-08-09T17:44:11.000Z,32.7
2018-08-09T17:46:11.000Z,32.6
2018-08-09T17:47:11.000Z,32.6
2018-08-09T17:49:11.000Z,32.6
2018-08-09T17:51:11.000Z,32.5
2018-08-09T17:52:11.000Z,32.5
2018-08-09T17:53:11.000Z,32.5
2018-08-09T17:55:11.000Z,32.5
2018-08-09T17:57:11.000Z,32.5
2018-08-09T17:58:11.000Z,32.5
2018-08-09T17:59:11.000Z,32.5
2018-08-09T18:00:11.000Z,32.6
2018-08-09T18:02:11.000Z,32.6
2018-08-09T18:04:11.000Z,32.5
2018-08-09T18:06:11.000Z,32.4
2018-08-09T18:08:11.000Z,32.3
2018-08-09T18:10:11.000Z,32.2
2018-08-09T18:12:11.000Z,32.1
2018-08-09T18:13:11.000Z,32.1
2018-08-09T18:14:11.000Z,32.1
2018-08-09T18:15:11.000Z,32.2
2018-08-09T18:17:11.000Z,32.3
2018-08-09T18:19:11.000Z,32.2
2018-08-09T18:20:55.000Z,32.1
2018-08-09T18:22:11.000Z,32.1
2018-08-09T18:24:11.000Z,32
2018-08-09T18:25:11.000Z,32
2018-08-09T18:27:11.000Z,32.1
2018-08-09T18:29:11.000Z,32.1
2018-08-09T18:31:11.000Z,32
2018-08-09T18:32:11.000Z,32
2018-08-09T18:33:11.000Z,32.1
2018-08-09T18:34:11.000Z,32.2
2018-08-09T18:36:11.000Z,32.2
2018-08-09T18:37:11.000Z,32.2
2018-08-09T18:38:11.000Z,32.2
2018-08-09T18:39:11.000Z,32.2
2018-08-09T18:40:11.000Z,32.2
2018-08-09T18:42:11.000Z,32.2
2018-08-09T18:43:11.000Z,32.2
2018-08-09T18:44:11.000Z,32.2
2018-08-09T18:46:11.000Z,32.2
2018-08-09T18:48:11.000Z,32
2018-08-09T18:50:11.000Z,31.9
2018-08-09T18:51:11.000Z,31.9
2018-08-09T18:52:11.000Z,31.9
2018-08-09T18:53:11.000Z,31.9
2018-08-09T18:55:11.000Z,31.9
2018-08-09T18:57:11.000Z,31.9
2018-08-09T18:58:11.000Z,31.9
2018-08-09T18:59:11.000Z,31.9
2018-08-09T19:00:11.000Z,32
2018-08-09T19:01:11.000Z,32
2018-08-09T19:03:11.000Z,31.9
2018-08-09T19:04:10.000Z,31.9
2018-08-09T19:05:10.000Z,31.9
2018-08-09T19:07:10.000Z,31.9
2018-08-09T19:09:10.000Z,31.7
2018-08-09T19:10:10.000Z,31.7
2018-08-09T19:12:10.000Z,31.6
2018-08-09T19:13:10.000Z,31.6
2018-08-09T19:15:10.000Z,31.6
2018-08-09T19:17:10.000Z,31.5
2018-08-09T19:18:10.000Z,31.5
2018-08-09T19:19:10.000Z,31.6
2018-08-09T19:21:10.000Z,31.6
2018-08-09T19:23:10.000Z,31.5
2018-08-09T19:24:55.000Z,31.5
2018-08-09T19:26:10.000Z,31.4
2018-08-09T19:27:10.000Z,31.4
2018-08-09T19:29:10.000Z,31.4
2018-08-09T19:30:10.000Z,31.5
2018-08-09T19:32:10.000Z,31.5
2018-08-09T19:33:10.000Z,31.5
2018-08-09T19:35:10.000Z,31.5
2018-08-09T19:37:10.000Z,31.4
2018-08-09T19:39:10.000Z,31.2
2018-08-09T19:41:10.000Z,31.1
2018-08-09T19:43:10.000Z,31.1
2018-08-09T19:44:10.000Z,31.2
2018-08-09T19:46:10.000Z,31.2
2018-08-09T19:47:10.000Z,31.3
2018-08-09T19:48:10.000Z,31.3
2018-08-09T19:50:10.000Z,31.3
2018-08-09T19:51:10.000Z,31.3
2018-08-09T19:53:10.000Z,31.3
2018-08-09T19:55:10.000Z,31.3
2018-08-09T19:56:10.000Z,31.3
2018-08-09T19:58:10.000Z,31.2
2018-08-09T19:59:10.000Z,31.2
2018-08-09T20:00:10.000Z,31.2
2018-08-09T20:01:10.000Z,31.3
2018-08-09T20:03:10.000Z,31.3
2018-08-09T20:04:10.000Z,31.3
2018-08-09T20:06:10.000Z,31.3
2018-08-09T20:07:10.000Z,31.3
2018-08-09T20:08:11.000Z,31.3
2018-08-09T20:10:11.000Z,31.4
2018-08-09T20:11:11.000Z,31.4
2018-08-09T20:13:11.000Z,31.4
2018-08-09T20:15:11.000Z,31.3
2018-08-09T20:16:11.000Z,31.3
2018-08-09T20:18:11.000Z,31.3
2018-08-09T20:20:11.000Z,31.3
2018-08-09T20:22:11.000Z,31.2
2018-08-09T20:24:11.000Z,31.2
2018-08-09T20:25:11.000Z,31.2
2018-08-09T20:27:11.000Z,31.2
2018-08-09T20:28:11.000Z,31.2
2018-08-09T20:30:11.000Z,31.3
2018-08-09T20:32:11.000Z,31.2
2018-08-09T20:33:11.000Z,31.3
2018-08-09T20:34:11.000Z,31.3
2018-08-09T20:36:11.000Z,31.3